Time;durP1;ratioP1;P1;durP2;ratioP2;P2;SDS_P1;SDS_P2;PMS_P1;PMS_P2;Temp;Humidity;BMP_temperature;BMP_pressure;BME280_temperature;BME280_humidity;BME280_pressure;Samples;Min_cycle;Max_cycle;Signal;HPM_P1;HPM_P2
2023/05/17 00:01:44;;;;;;;6.45;2.40;;;10.90;59.10;;;;;;2264183;56;21097;-73
2023/05/17 00:04:11;;;;;;;4.07;1.65;;;10.90;59.10;;;;;;2260389;56;21000;-73
2023/05/17 00:06:38;;;;;;;2.90;1.30;;;10.90;59.10;;;;;;2491134;55;20964;-72
2023/05/17 00:09:04;;;;;;;3.25;1.30;;;10.80;59.00;;;;;;2491678;55;21437;-73
2023/05/17 00:11:30;;;;;;;1.98;0.75;;;10.80;59.10;;;;;;2262944;56;21768;-73
2023/05/17 00:13:57;;;;;;;2.10;0.98;;;10.80;59.10;;;;;;2491777;55;21035;-71
2023/05/17 00:16:24;;;;;;;2.30;0.80;;;10.70;59.10;;;;;;2262742;56;21220;-73
2023/05/17 00:18:52;;;;;;;2.05;0.80;;;10.70;59.10;;;;;;2262833;56;20933;-70
2023/05/17 00:21:18;;;;;;;1.73;0.80;;;10.70;59.10;;;;;;2487372;55;20940;-71
2023/05/17 00:23:44;;;;;;;2.05;0.60;;;10.60;59.10;;;;;;2489841;55;21013;-71
2023/05/17 00:26:12;;;;;;;1.75;0.70;;;10.60;59.10;;;;;;2262319;56;20920;-75
2023/05/17 00:28:39;;;;;;;2.35;0.80;;;10.60;59.20;;;;;;2262341;56;21000;-71
2023/05/17 00:31:05;;;;;;;1.17;0.55;;;10.60;59.20;;;;;;2491712;55;21529;-70
2023/05/17 00:33:34;;;;;;;2.20;0.75;;;10.50;59.20;;;;;;2490946;55;21504;-73
2023/05/17 00:36:00;;;;;;;2.05;0.70;;;10.50;59.20;;;;;;2262605;56;20956;-71
2023/05/17 00:38:26;;;;;;;2.17;0.73;;;10.50;59.30;;;;;;2491398;55;21052;-73
2023/05/17 00:40:53;;;;;;;3.12;0.70;;;10.50;59.30;;;;;;2492017;55;21480;-71
2023/05/17 00:43:19;;;;;;;2.50;1.00;;;10.50;59.30;;;;;;2262651;56;21481;-69
2023/05/17 00:45:49;;;;;;;2.25;0.82;;;10.40;59.20;;;;;;2491738;55;20952;-74
2023/05/17 00:48:15;;;;;;;2.40;0.80;;;10.40;59.30;;;;;;2491974;55;20963;-69
2023/05/17 00:50:41;;;;;;;2.05;0.60;;;10.40;59.20;;;;;;2491910;55;21087;-73
2023/05/17 00:53:08;;;;;;;1.40;0.60;;;10.30;59.20;;;;;;2491499;55;21016;-73
2023/05/17 00:55:34;;;;;;;2.25;0.82;;;10.30;59.30;;;;;;2490369;55;20957;-72
2023/05/17 00:58:03;;;;;;;2.25;0.70;;;10.30;59.40;;;;;;2488867;55;21522;-72
2023/05/17 01:00:29;;;;;;;2.25;0.70;;;10.30;59.50;;;;;;2487613;55;21100;-73
2023/05/17 01:02:55;;;;;;;1.98;0.80;;;10.30;59.50;;;;;;2256998;56;20991;-74
2023/05/17 01:05:22;;;;;;;1.92;0.80;;;10.30;59.50;;;;;;2471788;55;20980;-71
2023/05/17 01:07:49;;;;;;;1.58;0.70;;;10.20;59.40;;;;;;2263532;56;21065;-71
2023/05/17 01:10:15;;;;;;;1.35;0.60;;;10.20;59.30;;;;;;2491733;55;21525;-74
2023/05/17 01:19:40;;;;;;;1.55;0.60;;;10.20;59.40;;;;;;2262746;56;20996;-72
2023/05/17 01:22:25;;;;;;;1.83;0.60;;;10.20;59.20;;;;;;2491200;55;21008;-71
2023/05/17 01:31:43;;;;;;;2.30;0.65;;;10.20;59.20;;;;;;2263086;56;21099;-76
2023/05/17 01:34:12;;;;;;;1.55;0.50;;;10.10;59.10;;;;;;2262785;56;20944;-71
2023/05/17 01:36:38;;;;;;;0.75;0.40;;;10.00;59.00;;;;;;2491008;55;21418;-73
2023/05/17 01:39:04;;;;;;;1.83;0.73;;;10.00;59.10;;;;;;2263173;56;21691;-71
2023/05/17 01:41:41;;;;;;;1.70;0.73;;;9.90;60.00;;;;;;2263113;56;20961;-72
2023/05/17 01:44:32;;;;;;;1.25;0.50;;;9.90;60.20;;;;;;2262360;56;20925;-72
2023/05/17 01:47:08;;;;;;;1.65;0.60;;;9.90;60.20;;;;;;2262379;56;20956;-72
2023/05/17 01:49:37;;;;;;;2.20;0.70;;;9.90;60.20;;;;;;2491124;55;21548;-73
2023/05/17 01:52:34;;;;;;;3.80;0.70;;;9.90;60.30;;;;;;2262984;56;20949;-71
2023/05/17 01:55:09;;;;;;;1.67;0.70;;;9.80;60.20;;;;;;2262369;56;21849;-71
2023/05/17 01:57:36;;;;;;;1.67;0.60;;;9.80;60.30;;;;;;2261995;56;20965;-72
2023/05/17 02:00:06;;;;;;;2.40;0.80;;;9.80;60.40;;;;;;2491887;55;20980;-72
2023/05/17 02:02:32;;;;;;;2.60;0.62;;;9.80;60.40;;;;;;2491149;55;21472;-71
2023/05/17 02:04:59;;;;;;;1.37;0.60;;;9.70;60.30;;;;;;2261625;56;20957;-71
2023/05/17 02:07:26;;;;;;;1.08;0.55;;;9.80;60.50;;;;;;2490213;55;20992;-71
2023/05/17 02:09:53;;;;;;;2.72;1.10;;;9.70;60.40;;;;;;2262644;56;20976;-74
2023/05/17 02:12:19;;;;;;;3.05;0.98;;;9.70;60.50;;;;;;2262189;56;21988;-71
2023/05/17 02:14:46;;;;;;;1.70;0.70;;;9.70;60.50;;;;;;2262728;56;20965;-73
2023/05/17 02:17:12;;;;;;;2.45;1.00;;;9.70;60.50;;;;;;2489516;55;20968;-72
2023/05/17 02:19:38;;;;;;;2.33;0.90;;;9.70;60.50;;;;;;2490855;55;20909;-75
2023/05/17 02:22:05;;;;;;;2.05;0.80;;;9.70;60.50;;;;;;2262031;56;21000;-71
2023/05/17 02:24:31;;;;;;;6.00;1.00;;;9.70;60.60;;;;;;2261766;56;20956;-75
2023/05/17 02:26:58;;;;;;;3.70;0.85;;;9.70;60.70;;;;;;2491182;55;21004;-71
2023/05/17 02:29:25;;;;;;;2.37;0.80;;;9.60;60.60;;;;;;2491762;55;20937;-73
2023/05/17 02:31:51;;;;;;;2.45;0.62;;;9.70;60.70;;;;;;2491997;55;20940;-73
2023/05/17 02:34:18;;;;;;;2.60;0.75;;;9.70;60.70;;;;;;2488926;55;21031;-69
2023/05/17 02:36:44;;;;;;;1.90;0.75;;;9.70;60.70;;;;;;2487952;55;20952;-74
2023/05/17 02:39:11;;;;;;;1.80;0.85;;;9.70;60.80;;;;;;2490874;55;20928;-70
2023/05/17 02:41:39;;;;;;;1.85;0.60;;;9.70;60.80;;;;;;2486878;55;20917;-73
2023/05/17 02:44:08;;;;;;;2.25;0.70;;;9.70;60.90;;;;;;2490989;55;21742;-72
2023/05/17 02:46:34;;;;;;;0.98;0.50;;;9.70;60.90;;;;;;2262384;56;20916;-72
2023/05/17 02:49:01;;;;;;;1.10;0.50;;;9.70;61.00;;;;;;2262929;56;20989;-71
2023/05/17 02:51:27;;;;;;;1.37;0.60;;;9.70;61.00;;;;;;2262511;56;20952;-72
2023/05/17 02:53:54;;;;;;;2.20;0.80;;;9.70;61.00;;;;;;2491868;55;21510;-71
2023/05/17 02:56:23;;;;;;;1.17;0.52;;;9.70;61.00;;;;;;2262706;56;20968;-73
2023/05/17 02:58:50;;;;;;;1.85;0.70;;;9.70;61.00;;;;;;2491680;55;21116;-71
2023/05/17 03:01:16;;;;;;;6.72;0.90;;;9.70;61.00;;;;;;2490380;55;20920;-71
2023/05/17 03:03:42;;;;;;;1.95;0.73;;;9.70;61.00;;;;;;2259419;57;20996;-72
2023/05/17 03:06:10;;;;;;;3.05;0.80;;;9.70;61.00;;;;;;2491396;55;20984;-70
2023/05/17 03:08:36;;;;;;;2.22;0.90;;;9.70;61.10;;;;;;2487322;55;20950;-75
2023/05/17 03:11:02;;;;;;;3.42;1.08;;;9.70;61.00;;;;;;2490364;55;20967;-73
2023/05/17 03:13:30;;;;;;;4.07;0.77;;;9.70;61.00;;;;;;2475657;55;21011;-70
2023/05/17 03:15:57;;;;;;;1.70;0.60;;;9.70;61.00;;;;;;2252175;56;20989;-74
2023/05/17 03:18:24;;;;;;;1.80;0.60;;;9.70;60.90;;;;;;2262124;56;20973;-74
2023/05/17 03:20:50;;;;;;;1.40;0.65;;;9.70;61.00;;;;;;2490838;55;21091;-71
2023/05/17 03:23:17;;;;;;;2.70;0.90;;;9.70;60.90;;;;;;2485859;55;20962;-76
2023/05/17 03:25:43;;;;;;;1.83;0.80;;;9.70;60.90;;;;;;2488206;55;21039;-73
2023/05/17 03:28:12;;;;;;;2.47;0.80;;;9.70;60.90;;;;;;2260775;56;21016;-71
2023/05/17 03:30:39;;;;;;;2.92;0.73;;;9.70;60.90;;;;;;2491309;55;20937;-71
2023/05/17 03:33:05;;;;;;;2.25;0.62;;;9.70;60.90;;;;;;2262426;56;20997;-72
2023/05/17 03:35:34;;;;;;;1.95;0.80;;;9.70;61.00;;;;;;2491981;55;21063;-73
2023/05/17 03:38:00;;;;;;;2.72;0.82;;;9.70;61.00;;;;;;2263302;56;20948;-70
2023/05/17 03:40:26;;;;;;;3.15;0.77;;;9.70;61.10;;;;;;2492043;55;21100;-74
2023/05/17 03:42:54;;;;;;;2.33;0.60;;;9.70;61.10;;;;;;2491088;55;21002;-72
2023/05/17 03:45:21;;;;;;;2.67;0.80;;;9.70;61.00;;;;;;2258790;56;20972;-72
2023/05/17 03:47:48;;;;;;;2.40;0.77;;;9.70;61.00;;;;;;2262195;56;21035;-72
2023/05/17 03:50:15;;;;;;;2.20;0.80;;;9.70;61.10;;;;;;2262870;56;20968;-71
2023/05/17 03:52:42;;;;;;;1.98;0.80;;;9.70;61.10;;;;;;2491878;55;20945;-73
2023/05/17 03:55:11;;;;;;;2.35;0.90;;;9.70;61.10;;;;;;2491823;55;20973;-71
2023/05/17 03:57:38;;;;;;;1.85;0.70;;;9.70;61.10;;;;;;2491855;55;20956;-73
2023/05/17 04:00:09;;;;;;;2.10;0.70;;;9.70;61.00;;;;;;2492006;55;20980;-71
2023/05/17 04:02:36;;;;;;;1.77;0.60;;;9.70;61.10;;;;;;2491748;55;20972;-71
2023/05/17 04:05:03;;;;;;;1.62;0.70;;;9.70;60.50;;;;;;2262284;56;21043;-71
2023/05/17 04:07:30;;;;;;;1.77;0.70;;;9.70;61.10;;;;;;2262405;56;20996;-71
2023/05/17 04:10:01;;;;;;;2.67;0.80;;;9.70;61.10;;;;;;2491425;55;21000;-72
2023/05/17 04:12:28;;;;;;;1.83;0.70;;;9.70;61.10;;;;;;2263510;56;20945;-70
2023/05/17 04:14:54;;;;;;;3.08;0.80;;;9.70;61.10;;;;;;2262907;56;21008;-71
2023/05/17 04:17:20;;;;;;;1.98;0.70;;;9.70;61.10;;;;;;2491631;55;20920;-73
2023/05/17 04:19:47;;;;;;;2.70;0.82;;;9.70;61.20;;;;;;2259567;56;20992;-72
2023/05/17 04:22:13;;;;;;;2.05;0.80;;;9.70;61.20;;;;;;2262757;56;20960;-69
2023/05/17 04:24:40;;;;;;;3.85;0.85;;;9.70;61.20;;;;;;2491190;55;21017;-74
2023/05/17 04:27:06;;;;;;;1.73;0.70;;;9.70;61.30;;;;;;2258064;56;20953;-74
2023/05/17 04:29:35;;;;;;;2.20;0.70;;;9.70;61.30;;;;;;2491382;55;21276;-71
2023/05/17 04:32:01;;;;;;;2.83;0.82;;;9.70;61.30;;;;;;2486186;55;20990;-71
2023/05/17 04:34:27;;;;;;;2.28;0.73;;;9.70;61.40;;;;;;2262605;56;20947;-73
2023/05/17 04:36:55;;;;;;;2.75;0.90;;;9.70;61.40;;;;;;2491022;55;20933;-72
2023/05/17 04:39:22;;;;;;;3.30;0.88;;;9.70;61.40;;;;;;2486476;55;21066;-71
2023/05/17 04:41:48;;;;;;;2.67;0.90;;;9.70;61.50;;;;;;2244162;56;21421;-69
2023/05/17 04:44:15;;;;;;;3.33;0.88;;;9.70;61.50;;;;;;2261106;56;21026;-74
2023/05/17 04:46:42;;;;;;;2.78;0.80;;;9.80;61.60;;;;;;2491700;55;21482;-72
2023/05/17 04:49:09;;;;;;;3.15;1.00;;;9.80;61.60;;;;;;2491868;55;21007;-72
2023/05/17 04:51:35;;;;;;;2.50;1.00;;;9.80;61.70;;;;;;2491196;55;20927;-72
2023/05/17 04:54:05;;;;;;;3.58;0.73;;;9.80;61.80;;;;;;2488411;55;20957;-71
2023/05/17 04:56:32;;;;;;;3.37;0.90;;;9.80;61.90;;;;;;2490418;55;20956;-74
2023/05/17 04:58:59;;;;;;;1.75;0.77;;;9.90;62.10;;;;;;2491523;55;20961;-72
2023/05/17 05:01:28;;;;;;;2.45;0.85;;;9.90;62.10;;;;;;2262970;56;20929;-71
2023/05/17 05:03:54;;;;;;;3.05;1.23;;;9.90;62.20;;;;;;2265173;56;21591;-73
2023/05/17 05:06:21;;;;;;;2.33;0.90;;;10.00;61.20;;;;;;2486733;55;20977;-72
2023/05/17 05:08:50;;;;;;;2.95;1.05;;;10.00;61.30;;;;;;2262422;56;20932;-73
2023/05/17 05:11:16;;;;;;;2.00;0.90;;;10.00;61.40;;;;;;2490559;55;20940;-74
2023/05/17 05:13:45;;;;;;;4.40;1.15;;;10.10;61.50;;;;;;2488415;55;21030;-72
2023/05/17 05:16:12;;;;;;;4.80;2.00;;;10.10;61.50;;;;;;2488821;55;21016;-72
2023/05/17 05:18:39;;;;;;;7.15;1.42;;;10.20;61.60;;;;;;2264535;56;21003;-72
2023/05/17 05:21:05;;;;;;;2.62;1.10;;;10.20;61.60;;;;;;2487841;55;21032;-73
2023/05/17 05:23:32;;;;;;;3.08;1.20;;;10.30;61.70;;;;;;2264796;56;20970;-73
2023/05/17 05:26:07;;;;;;;2.67;1.10;;;10.30;61.70;;;;;;2486807;55;20961;-72
2023/05/17 05:28:33;;;;;;;3.22;0.98;;;10.40;61.90;;;;;;2263444;56;20949;-74
2023/05/17 05:31:00;;;;;;;6.18;1.20;;;10.40;61.80;;;;;;2489581;55;21419;-71
2023/05/17 05:33:27;;;;;;;2.42;0.90;;;10.50;61.90;;;;;;2488251;55;21034;-72
2023/05/17 05:35:53;;;;;;;2.22;0.93;;;10.50;61.80;;;;;;2262890;56;21053;-74
2023/05/17 05:38:20;;;;;;;1.98;1.00;;;10.60;61.80;;;;;;2488467;55;20941;-71
2023/05/17 05:40:49;;;;;;;6.07;1.08;;;10.60;61.70;;;;;;2491779;55;20977;-73
2023/05/17 05:43:15;;;;;;;2.67;1.00;;;10.70;61.90;;;;;;2262817;56;21996;-74
2023/05/17 05:45:46;;;;;;;2.75;0.98;;;10.70;61.90;;;;;;2491660;55;20989;-70
2023/05/17 05:48:12;;;;;;;2.25;0.80;;;10.80;61.90;;;;;;2262833;56;20972;-72
2023/05/17 05:50:41;;;;;;;4.47;0.90;;;10.80;61.90;;;;;;2491629;55;20989;-73
2023/05/17 05:53:14;;;;;;;4.37;0.90;;;10.80;61.90;;;;;;2491296;55;20939;-73
2023/05/17 05:55:44;;;;;;;2.83;1.00;;;10.90;61.90;;;;;;2491798;55;20920;-71
2023/05/17 05:58:12;;;;;;;2.90;1.20;;;10.90;61.90;;;;;;2491877;55;21068;-75
2023/05/17 06:00:38;;;;;;;2.70;1.00;;;11.00;62.10;;;;;;2492016;55;20921;-72
2023/05/17 06:03:06;;;;;;;4.00;1.23;;;11.00;62.10;;;;;;2263078;56;20988;-73
2023/05/17 06:05:32;;;;;;;3.85;1.10;;;11.10;62.20;;;;;;2265166;56;21016;-72
2023/05/17 06:08:00;;;;;;;2.20;1.00;;;11.10;62.20;;;;;;2263187;56;20983;-74
2023/05/17 06:10:28;;;;;;;2.70;1.10;;;11.20;62.30;;;;;;2489190;55;21038;-73
2023/05/17 06:12:55;;;;;;;2.47;1.00;;;11.20;62.20;;;;;;2488712;55;20957;-75
2023/05/17 06:15:21;;;;;;;3.58;1.20;;;11.30;62.30;;;;;;2491930;55;20968;-74
2023/05/17 06:17:48;;;;;;;2.45;0.90;;;11.30;62.20;;;;;;2491623;55;21397;-74
2023/05/17 06:20:15;;;;;;;3.17;0.90;;;11.40;62.40;;;;;;2491120;55;20968;-75
2023/05/17 06:22:44;;;;;;;4.35;1.12;;;11.40;62.30;;;;;;2258544;56;20975;-74
2023/05/17 06:25:11;;;;;;;2.90;1.00;;;11.50;62.40;;;;;;2491390;55;21012;-72
2023/05/17 06:27:37;;;;;;;4.10;1.15;;;11.50;62.40;;;;;;2262899;56;20933;-74
2023/05/17 06:30:04;;;;;;;2.75;1.00;;;11.60;62.40;;;;;;2262752;56;20956;-75
2023/05/17 06:32:33;;;;;;;3.22;1.20;;;11.60;62.30;;;;;;2263606;55;21038;-74
2023/05/17 06:35:00;;;;;;;2.45;1.00;;;11.70;62.40;;;;;;2261131;56;21048;-73
2023/05/17 06:37:27;;;;;;;3.08;1.20;;;11.80;62.50;;;;;;2486656;55;20978;-73
2023/05/17 06:40:01;;;;;;;3.10;1.40;;;11.80;62.50;;;;;;2262971;56;20964;-73
2023/05/17 06:42:35;;;;;;;2.92;1.35;;;11.90;62.60;;;;;;2263259;56;20921;-72
2023/05/17 06:45:02;;;;;;;4.18;1.30;;;11.90;62.40;;;;;;2491306;55;21520;-75
2023/05/17 06:47:28;;;;;;;2.90;1.02;;;12.00;62.50;;;;;;2492183;55;21000;-73
2023/05/17 06:49:56;;;;;;;5.32;1.33;;;12.10;62.60;;;;;;2491670;55;20981;-74
2023/05/17 06:52:23;;;;;;;3.12;1.17;;;12.10;62.60;;;;;;2262108;56;21401;-73
2023/05/17 06:54:52;;;;;;;3.35;1.37;;;12.20;62.60;;;;;;2262916;56;21469;-72
2023/05/17 06:57:18;;;;;;;6.78;1.85;;;12.30;62.70;;;;;;2262789;56;21736;-73
2023/05/17 06:59:45;;;;;;;5.28;1.62;;;12.30;62.70;;;;;;2263399;56;20960;-72
2023/05/17 07:02:12;;;;;;;3.30;1.33;;;12.40;62.60;;;;;;2487624;55;21044;-73
2023/05/17 07:04:39;;;;;;;3.72;1.35;;;12.50;62.80;;;;;;2262848;56;20948;-73
2023/05/17 07:07:05;;;;;;;3.97;1.48;;;12.50;62.80;;;;;;2262476;56;21754;-72
2023/05/17 07:09:32;;;;;;;3.62;1.45;;;12.60;62.70;;;;;;2263619;56;20928;-73
2023/05/17 07:11:58;;;;;;;3.97;1.50;;;12.70;62.70;;;;;;2491937;55;20979;-74
2023/05/17 07:14:25;;;;;;;4.22;1.58;;;12.80;62.80;;;;;;2263380;56;20936;-72
2023/05/17 07:16:52;;;;;;;4.32;1.42;;;12.90;62.80;;;;;;2263589;56;21712;-74
2023/05/17 07:19:18;;;;;;;3.55;1.20;;;12.90;62.70;;;;;;2491863;55;20972;-72
2023/05/17 07:21:45;;;;;;;3.85;1.23;;;13.00;62.80;;;;;;2491759;55;21657;-74
2023/05/17 07:24:12;;;;;;;5.00;1.65;;;13.10;62.90;;;;;;2264787;56;21067;-73
2023/05/17 07:26:38;;;;;;;4.53;1.67;;;13.20;62.90;;;;;;2245876;56;21000;-73
2023/05/17 07:29:05;;;;;;;3.62;1.12;;;13.30;63.00;;;;;;2262821;56;21780;-72
2023/05/17 07:31:34;;;;;;;3.65;1.48;;;13.40;63.50;;;;;;2490702;55;21058;-73
2023/05/17 07:34:00;;;;;;;3.60;1.50;;;13.50;62.80;;;;;;2488612;55;20945;-72
2023/05/17 07:36:29;;;;;;;2.85;1.20;;;13.60;62.90;;;;;;2266825;56;21014;-74
2023/05/17 07:38:56;;;;;;;3.87;1.60;;;13.70;63.10;;;;;;2467515;55;20917;-72
2023/05/17 07:41:26;;;;;;;3.87;1.40;;;13.80;62.90;;;;;;2492115;55;21091;-73
2023/05/17 07:43:52;;;;;;;3.28;1.23;;;13.90;62.70;;;;;;2491637;55;21008;-73
2023/05/17 07:46:20;;;;;;;4.07;1.50;;;14.00;62.60;;;;;;2491183;55;21776;-74
2023/05/17 07:48:46;;;;;;;3.45;1.48;;;14.10;62.40;;;;;;2262943;56;20932;-72
2023/05/17 07:51:13;;;;;;;3.65;1.20;;;14.20;62.10;;;;;;2491618;55;20956;-75
2023/05/17 07:53:39;;;;;;;4.87;1.40;;;14.20;62.00;;;;;;2263031;56;21413;-73
2023/05/17 07:56:11;;;;;;;3.12;1.17;;;14.30;62.00;;;;;;2263177;56;21008;-73
2023/05/17 07:58:37;;;;;;;4.03;1.40;;;14.40;61.90;;;;;;2492232;55;21064;-73
2023/05/17 08:01:04;;;;;;;4.40;1.30;;;14.50;61.80;;;;;;2491958;55;20948;-74
2023/05/17 08:03:30;;;;;;;2.97;1.33;;;14.50;61.40;;;;;;2492582;55;20956;-73
2023/05/17 08:05:57;;;;;;;4.40;1.42;;;14.60;61.50;;;;;;2490943;55;20984;-72
2023/05/17 08:08:23;;;;;;;5.12;1.67;;;14.70;61.50;;;;;;2258379;56;21004;-72
2023/05/17 08:10:49;;;;;;;3.12;1.27;;;14.70;61.30;;;;;;2262723;56;20945;-73
2023/05/17 08:13:16;;;;;;;4.22;1.40;;;14.80;61.20;;;;;;2492467;55;20968;-74
2023/05/17 08:15:43;;;;;;;3.50;1.40;;;14.80;61.00;;;;;;2261851;56;20964;-73
2023/05/17 08:18:09;;;;;;;4.60;1.33;;;14.90;61.00;;;;;;2263511;56;20952;-72
2023/05/17 08:20:37;;;;;;;4.10;1.27;;;15.00;60.80;;;;;;2487600;55;21039;-72
2023/05/17 08:23:03;;;;;;;3.78;1.48;;;15.00;60.40;;;;;;2262536;56;21417;-73
2023/05/17 08:25:31;;;;;;;3.87;1.40;;;15.00;60.20;;;;;;2492670;55;21409;-74
2023/05/17 08:27:58;;;;;;;4.07;1.60;;;15.10;60.00;;;;;;2491867;55;21453;-73
2023/05/17 08:30:24;;;;;;;3.28;1.48;;;15.10;59.90;;;;;;2492808;55;20948;-73
2023/05/17 08:32:55;;;;;;;4.20;1.42;;;15.10;59.80;;;;;;2492232;55;21019;-71
2023/05/17 08:35:25;;;;;;;5.55;1.70;;;15.20;59.80;;;;;;2473431;55;20980;-73
2023/05/17 08:37:54;;;;;;;3.45;1.50;;;15.20;59.70;;;;;;2482920;55;21554;-72
2023/05/17 08:40:21;;;;;;;3.08;1.45;;;15.20;59.70;;;;;;2486318;55;20934;-71
2023/05/17 08:42:49;;;;;;;4.30;1.30;;;15.30;59.80;;;;;;2264159;56;21453;-73
2023/05/17 08:45:17;;;;;;;3.20;1.50;;;15.30;59.80;;;;;;2492472;55;21902;-73
2023/05/17 08:47:45;;;;;;;5.18;1.80;;;15.30;59.70;;;;;;2264069;55;20920;-73
2023/05/17 08:50:11;;;;;;;3.95;1.60;;;15.30;59.50;;;;;;2263761;56;21531;-73
2023/05/17 08:52:44;;;;;;;4.47;1.52;;;15.40;59.50;;;;;;2492022;55;20945;-73
2023/05/17 08:55:15;;;;;;;3.25;1.70;;;15.40;59.40;;;;;;2492214;55;20948;-74
2023/05/17 08:57:41;;;;;;;5.50;1.90;;;15.50;59.50;;;;;;2491389;55;21032;-73
2023/05/17 09:00:13;;;;;;;3.72;1.62;;;15.50;59.30;;;;;;2488046;55;20955;-73
2023/05/17 09:02:41;;;;;;;4.87;1.67;;;15.50;59.20;;;;;;2491358;55;21488;-73
2023/05/17 09:05:08;;;;;;;4.70;1.40;;;15.50;59.00;;;;;;2491425;55;20944;-74
2023/05/17 09:07:35;;;;;;;3.55;1.40;;;15.60;59.00;;;;;;2492151;55;20984;-72
2023/05/17 09:10:04;;;;;;;4.12;1.50;;;15.60;59.00;;;;;;2263962;56;21019;-72
2023/05/17 09:12:34;;;;;;;2.80;1.12;;;15.60;59.10;;;;;;2263439;56;20925;-71
2023/05/17 09:15:17;;;;;;;4.37;1.77;;;15.60;59.10;;;;;;2492132;55;20932;-73
2023/05/17 09:17:51;;;;;;;4.40;1.60;;;15.70;58.80;;;;;;2490845;55;20936;-73
2023/05/17 09:20:33;;;;;;;3.60;1.42;;;15.70;59.00;;;;;;2492420;55;21445;-73
2023/05/17 09:23:00;;;;;;;3.58;1.33;;;15.80;58.70;;;;;;2265653;56;20920;-72
2023/05/17 09:25:31;;;;;;;3.67;1.23;;;15.80;58.90;;;;;;2262307;56;21656;-72
2023/05/17 09:28:01;;;;;;;4.03;1.70;;;15.90;59.10;;;;;;2263156;56;21004;-73
2023/05/17 09:30:29;;;;;;;5.93;1.52;;;15.90;58.80;;;;;;2266546;56;21006;-72
2023/05/17 09:32:59;;;;;;;4.43;1.50;;;15.90;58.70;;;;;;2488256;55;21466;-72
2023/05/17 09:35:29;;;;;;;3.30;1.37;;;15.90;58.70;;;;;;2492803;55;21056;-74
2023/05/17 09:38:08;;;;;;;4.20;1.50;;;16.00;59.30;;;;;;2492124;55;22045;-73
2023/05/17 09:40:39;;;;;;;3.00;1.20;;;16.10;58.30;;;;;;2263513;56;20993;-73
2023/05/17 09:43:05;;;;;;;3.87;1.40;;;16.10;58.60;;;;;;2262772;56;21473;-74
2023/05/17 09:45:32;;;;;;;3.58;1.20;;;16.20;58.70;;;;;;2492274;55;20988;-72
2023/05/17 09:48:15;;;;;;;4.93;1.83;;;16.30;58.60;;;;;;2491625;55;20992;-75
2023/05/17 09:50:48;;;;;;;2.80;1.25;;;16.30;57.70;;;;;;2262994;56;20984;-74
2023/05/17 09:53:31;;;;;;;3.00;1.25;;;16.30;57.80;;;;;;2491870;55;20953;-74
2023/05/17 09:56:00;;;;;;;3.92;1.52;;;16.40;57.70;;;;;;2492054;55;21012;-74
2023/05/17 09:58:27;;;;;;;3.65;1.65;;;16.40;57.80;;;;;;2263636;56;21015;-74
2023/05/17 10:01:02;;;;;;;3.83;1.62;;;16.40;57.60;;;;;;2263015;56;20964;-72
2023/05/17 10:03:33;;;;;;;4.95;1.62;;;16.50;57.40;;;;;;2492430;55;21064;-74
2023/05/17 10:06:01;;;;;;;4.05;1.52;;;16.50;57.40;;;;;;2491308;55;20964;-72
2023/05/17 10:08:29;;;;;;;3.83;1.40;;;16.50;57.30;;;;;;2262977;56;20932;-74
2023/05/17 10:10:57;;;;;;;3.30;1.58;;;16.60;57.20;;;;;;2492150;55;20948;-74
2023/05/17 10:13:26;;;;;;;3.55;1.50;;;16.60;57.30;;;;;;2479645;55;20944;-74
2023/05/17 10:15:52;;;;;;;4.35;1.80;;;16.60;57.50;;;;;;2268371;56;20924;-72
2023/05/17 10:18:19;;;;;;;5.20;1.80;;;16.60;57.50;;;;;;2492647;55;20952;-73
2023/05/17 10:20:46;;;;;;;4.75;1.50;;;16.70;57.20;;;;;;2492060;55;20953;-74
2023/05/17 10:23:13;;;;;;;4.35;1.75;;;16.70;56.80;;;;;;2491974;55;20959;-74
2023/05/17 10:25:40;;;;;;;4.95;1.90;;;16.80;56.80;;;;;;2492583;55;21001;-73
2023/05/17 10:28:06;;;;;;;3.58;1.30;;;16.80;56.70;;;;;;2263262;56;20945;-72
2023/05/17 10:30:34;;;;;;;3.42;1.37;;;16.80;56.50;;;;;;2263843;56;20977;-72
2023/05/17 10:33:03;;;;;;;2.90;1.45;;;16.80;56.40;;;;;;2492113;55;21708;-71
2023/05/17 10:35:31;;;;;;;5.05;2.25;;;16.80;56.40;;;;;;2264189;56;21004;-73
2023/05/17 10:37:57;;;;;;;3.92;1.35;;;16.90;56.50;;;;;;2263982;56;20940;-72
2023/05/17 10:40:24;;;;;;;3.33;1.40;;;16.90;56.50;;;;;;2264117;56;20936;-74
2023/05/17 10:42:51;;;;;;;3.87;1.48;;;16.90;56.70;;;;;;2263272;56;22515;-73
2023/05/17 10:45:22;;;;;;;4.43;1.48;;;16.90;57.00;;;;;;2263202;56;20964;-74
2023/05/17 10:47:52;;;;;;;6.82;2.08;;;17.00;57.10;;;;;;2491326;55;21398;-73
2023/05/17 10:50:25;;;;;;;4.55;1.58;;;17.10;56.90;;;;;;2491759;55;20972;-74
2023/05/17 10:52:55;;;;;;;3.85;1.55;;;17.20;56.60;;;;;;2263709;56;21011;-73
2023/05/17 10:55:40;;;;;;;3.62;1.58;;;17.20;56.60;;;;;;2492792;55;23117;-71
2023/05/17 10:58:17;;;;;;;4.50;1.48;;;17.20;56.30;;;;;;2492231;55;20984;-73
2023/05/17 11:00:53;;;;;;;2.30;1.00;;;17.30;56.30;;;;;;2491987;55;20960;-73
2023/05/17 11:03:21;;;;;;;4.37;1.15;;;17.40;56.30;;;;;;2492609;55;21008;-72
2023/05/17 11:06:12;;;;;;;4.93;1.77;;;17.40;56.40;;;;;;2492185;55;20996;-74
2023/05/17 11:09:07;;;;;;;3.92;1.77;;;17.50;55.90;;;;;;2491374;55;21390;-73
2023/05/17 11:11:35;;;;;;;4.22;2.08;;;17.50;55.10;;;;;;2491792;55;21000;-74
2023/05/17 11:14:02;;;;;;;3.20;1.25;;;17.50;55.70;;;;;;2262999;56;20989;-74
2023/05/17 11:16:35;;;;;;;4.53;1.60;;;17.50;55.60;;;;;;2264174;55;21025;-73
2023/05/17 11:19:08;;;;;;;5.25;1.70;;;17.50;55.20;;;;;;2261835;56;20991;-75
2023/05/17 11:21:46;;;;;;;4.05;1.75;;;17.60;55.70;;;;;;2262815;56;20908;-73
2023/05/17 11:24:24;;;;;;;5.07;1.77;;;17.60;54.70;;;;;;2263000;56;21047;-72
2023/05/17 11:26:50;;;;;;;4.68;1.40;;;17.60;55.10;;;;;;2490890;55;21409;-73
2023/05/17 11:29:17;;;;;;;3.65;1.37;;;17.60;55.30;;;;;;2261800;56;21434;-72
2023/05/17 11:31:51;;;;;;;4.70;1.67;;;17.60;55.10;;;;;;2262723;56;20952;-73
2023/05/17 11:34:17;;;;;;;4.05;1.80;;;17.60;55.10;;;;;;2266198;56;20948;-74
2023/05/17 11:36:55;;;;;;;3.80;1.70;;;17.70;55.20;;;;;;2259025;55;21648;-74
2023/05/17 11:39:25;;;;;;;4.25;2.03;;;17.70;54.60;;;;;;2491950;55;20869;-74
2023/05/17 11:41:57;;;;;;;3.95;1.85;;;17.70;54.70;;;;;;2262910;56;21556;-73
2023/05/17 11:44:32;;;;;;;5.03;1.95;;;17.80;54.60;;;;;;2251664;56;21826;-72
2023/05/17 11:47:04;;;;;;;5.35;2.00;;;17.80;54.30;;;;;;2496618;55;20953;-72
2023/05/17 11:49:35;;;;;;;6.37;2.17;;;17.80;54.20;;;;;;2263476;56;21441;-71
2023/05/17 11:52:03;;;;;;;4.70;1.98;;;17.80;54.10;;;;;;2492951;55;21021;-74
2023/05/17 11:54:31;;;;;;;4.25;2.03;;;17.80;54.00;;;;;;2264033;56;20972;-72
2023/05/17 11:56:58;;;;;;;3.53;1.70;;;17.80;53.90;;;;;;2263735;56;20930;-74
2023/05/17 11:59:25;;;;;;;5.90;2.50;;;17.80;53.90;;;;;;2492362;55;20937;-72
2023/05/17 12:01:52;;;;;;;6.37;2.28;;;17.80;53.90;;;;;;2492902;55;20925;-73
2023/05/17 12:04:26;;;;;;;4.87;2.30;;;17.80;53.80;;;;;;2492393;55;20948;-73
2023/05/17 12:06:53;;;;;;;4.20;2.00;;;17.80;53.50;;;;;;2492126;55;21023;-72
2023/05/17 12:09:20;;;;;;;6.18;2.00;;;17.80;53.70;;;;;;2492283;55;20964;-74
2023/05/17 12:11:46;;;;;;;5.00;1.92;;;17.80;53.70;;;;;;2491588;55;20940;-71
2023/05/17 12:14:16;;;;;;;6.43;1.98;;;17.80;53.70;;;;;;2492450;55;21437;-72
2023/05/17 12:16:52;;;;;;;6.03;2.42;;;17.80;53.50;;;;;;2264311;56;20982;-71
2023/05/17 12:19:23;;;;;;;5.03;2.00;;;17.90;53.10;;;;;;2262371;56;21024;-72
2023/05/17 12:21:50;;;;;;;7.62;2.62;;;17.90;53.40;;;;;;2492166;55;21533;-72
2023/05/17 12:24:16;;;;;;;5.70;2.50;;;17.90;53.40;;;;;;2263612;56;20912;-74
2023/05/17 12:26:46;;;;;;;5.43;2.25;;;17.90;53.30;;;;;;2492496;55;20973;-72
2023/05/17 12:29:13;;;;;;;6.62;1.92;;;17.90;53.40;;;;;;2490905;55;21048;-74
2023/05/17 12:31:41;;;;;;;3.78;1.77;;;17.90;53.50;;;;;;2491998;55;21513;-73
2023/05/17 12:34:08;;;;;;;5.30;2.58;;;17.90;53.50;;;;;;2491518;55;20943;-72
2023/05/17 12:36:36;;;;;;;4.78;2.10;;;18.00;53.70;;;;;;2263863;56;20980;-71
2023/05/17 12:39:04;;;;;;;4.15;1.95;;;18.00;53.70;;;;;;2262115;56;21012;-73
2023/05/17 12:41:31;;;;;;;6.32;2.50;;;18.10;53.90;;;;;;2254052;56;21440;-70
2023/05/17 12:44:00;;;;;;;6.40;2.30;;;18.10;53.90;;;;;;2261792;56;20940;-72
2023/05/17 12:46:32;;;;;;;5.55;2.22;;;18.20;53.90;;;;;;2492516;55;20960;-74
2023/05/17 12:49:07;;;;;;;6.62;2.30;;;18.30;53.90;;;;;;2263085;56;20989;-74
2023/05/17 12:51:43;;;;;;;7.10;2.20;;;18.30;53.40;;;;;;2492853;55;20936;-72
2023/05/17 12:54:10;;;;;;;5.45;2.42;;;18.40;53.40;;;;;;2491933;55;21020;-73
2023/05/17 12:56:36;;;;;;;5.25;2.35;;;18.40;53.40;;;;;;2263024;56;21550;-72
2023/05/17 12:59:16;;;;;;;5.00;2.05;;;18.50;53.10;;;;;;2263327;56;21059;-72
2023/05/17 13:01:44;;;;;;;4.40;2.10;;;18.50;52.50;;;;;;2492684;55;20944;-74
2023/05/17 13:04:10;;;;;;;4.85;2.40;;;18.50;52.70;;;;;;2487823;55;21033;-72
2023/05/17 13:06:52;;;;;;;6.03;2.70;;;18.50;52.60;;;;;;2491428;55;21084;-71
2023/05/17 13:09:20;;;;;;;6.83;2.53;;;18.50;52.10;;;;;;2262660;56;21524;-72
2023/05/17 13:12:10;;;;;;;4.80;2.08;;;18.50;52.40;;;;;;2263441;56;21000;-74